Time;durP1;ratioP1;P1;durP2;ratioP2;P2;SDS_P1;SDS_P2;PMS_P1;PMS_P2;Temp;Humidity;BMP_temperature;BMP_pressure;BME280_temperature;BME280_humidity;BME280_pressure;Samples;Min_cycle;Max_cycle;Signal;HPM_P1;HPM_P2
2023/10/22 00:00:50;;;;;;;5.53;0.77;;;17.10;99.90;;;;;;5055828;28;20021;-71
2023/10/22 00:03:16;;;;;;;6.88;0.90;;;17.10;99.90;;;;;;5056328;28;20037;-71
2023/10/22 00:05:45;;;;;;;4.63;1.00;;;17.10;99.90;;;;;;5056162;28;20083;-70
2023/10/22 00:08:10;;;;;;;3.25;0.73;;;17.10;99.90;;;;;;5055994;28;20037;-71
2023/10/22 00:10:36;;;;;;;6.75;1.30;;;17.10;99.90;;;;;;5055859;28;20033;-71
2023/10/22 00:13:02;;;;;;;5.68;0.90;;;17.10;99.90;;;;;;5055895;28;20029;-71
2023/10/22 00:15:28;;;;;;;8.60;1.10;;;17.10;99.90;;;;;;5056157;28;20027;-70
2023/10/22 00:17:54;;;;;;;5.05;1.00;;;17.10;99.90;;;;;;5055911;28;20033;-70
2023/10/22 00:20:20;;;;;;;6.85;1.30;;;17.00;99.90;;;;;;5055574;28;20025;-71
2023/10/22 00:22:46;;;;;;;5.30;1.45;;;17.10;99.90;;;;;;5054100;28;20053;-71
2023/10/22 00:25:12;;;;;;;13.45;1.25;;;17.10;99.90;;;;;;5055052;28;20021;-70
2023/10/22 00:27:38;;;;;;;8.32;1.45;;;17.00;99.90;;;;;;5055313;28;20047;-71
2023/10/22 00:30:05;;;;;;;7.60;1.63;;;17.00;99.90;;;;;;5055205;28;20108;-71
2023/10/22 00:32:32;;;;;;;10.45;2.22;;;17.10;99.90;;;;;;5055298;28;20124;-70
2023/10/22 00:34:58;;;;;;;7.35;1.30;;;17.10;99.90;;;;;;5055368;28;20028;-71
2023/10/22 00:37:23;;;;;;;4.00;1.10;;;17.00;99.90;;;;;;5055404;28;20032;-70
2023/10/22 00:39:49;;;;;;;6.38;1.50;;;17.00;99.90;;;;;;5055452;28;20033;-72
2023/10/22 00:42:16;;;;;;;3.55;1.13;;;17.00;99.90;;;;;;5055205;28;20043;-71
2023/10/22 00:44:41;;;;;;;4.85;1.27;;;17.00;99.90;;;;;;5054876;28;20017;-70
2023/10/22 00:47:09;;;;;;;5.45;1.30;;;17.00;99.90;;;;;;5055221;28;20086;-71
2023/10/22 00:49:35;;;;;;;6.10;1.63;;;17.00;99.90;;;;;;5055177;28;20025;-70
2023/10/22 00:52:03;;;;;;;6.43;1.10;;;17.00;99.90;;;;;;5055050;28;20095;-72
2023/10/22 00:54:29;;;;;;;7.22;1.40;;;17.00;99.90;;;;;;5055100;28;20031;-71
2023/10/22 00:56:55;;;;;;;5.28;1.15;;;17.00;99.90;;;;;;5054758;28;20528;-70
2023/10/22 00:59:21;;;;;;;14.73;1.80;;;17.00;99.90;;;;;;5052174;28;20091;-71
2023/10/22 01:01:50;;;;;;;9.82;1.23;;;17.00;99.90;;;;;;5051998;28;20037;-71
2023/10/22 01:04:19;;;;;;;2.75;0.90;;;17.00;99.90;;;;;;5052586;28;20037;-71
2023/10/22 01:06:46;;;;;;;4.57;1.50;;;17.00;99.90;;;;;;5054693;28;20029;-71
2023/10/22 01:09:12;;;;;;;9.55;0.98;;;17.00;99.90;;;;;;5054895;28;20040;-70
2023/10/22 01:11:57;;;;;;;4.50;0.93;;;17.00;99.90;;;;;;5054666;28;20477;-70
2023/10/22 01:14:23;;;;;;;9.95;0.85;;;17.00;99.90;;;;;;5054612;28;20124;-72
2023/10/22 01:16:48;;;;;;;5.03;0.80;;;17.00;99.90;;;;;;5054802;28;20108;-72
2023/10/22 01:19:14;;;;;;;5.55;1.10;;;17.00;99.90;;;;;;5054798;28;20104;-70
2023/10/22 01:21:40;;;;;;;2.13;0.70;;;16.90;99.90;;;;;;5054311;28;20094;-70
2023/10/22 01:24:07;;;;;;;4.85;0.73;;;16.90;99.90;;;;;;5054622;28;20530;-71
2023/10/22 01:26:39;;;;;;;10.85;1.52;;;16.90;99.90;;;;;;5054939;28;20481;-71
2023/10/22 01:29:05;;;;;;;7.05;0.85;;;16.90;99.90;;;;;;5054474;28;20044;-70
2023/10/22 01:31:31;;;;;;;4.18;1.02;;;16.90;99.90;;;;;;5054364;28;20178;-71
2023/10/22 01:33:56;;;;;;;5.47;0.77;;;16.90;99.90;;;;;;5054050;28;20053;-71
2023/10/22 01:36:22;;;;;;;9.35;1.00;;;16.90;99.90;;;;;;5053976;28;20163;-70
2023/10/22 01:38:48;;;;;;;5.95;1.13;;;16.90;99.90;;;;;;5054125;28;20499;-71
2023/10/22 01:41:14;;;;;;;4.28;0.98;;;16.90;99.90;;;;;;5054174;28;20025;-71
2023/10/22 01:43:40;;;;;;;2.35;0.98;;;16.90;99.90;;;;;;5053853;28;20108;-71
2023/10/22 01:46:06;;;;;;;5.70;2.03;;;16.90;99.90;;;;;;5054059;28;20039;-70
2023/10/22 01:48:32;;;;;;;4.68;1.25;;;16.90;99.90;;;;;;5053853;28;20033;-72
2023/10/22 01:50:58;;;;;;;7.90;1.50;;;16.90;99.90;;;;;;5053898;28;20465;-71
2023/10/22 01:53:24;;;;;;;5.50;1.23;;;16.90;99.90;;;;;;5053230;28;20025;-71
2023/10/22 01:55:50;;;;;;;4.28;1.02;;;16.90;99.90;;;;;;5053985;28;20405;-72
2023/10/22 01:58:16;;;;;;;4.32;1.25;;;16.90;99.90;;;;;;5054231;28;20029;-71
2023/10/22 02:00:42;;;;;;;4.95;1.85;;;16.90;99.90;;;;;;5053784;28;20494;-70
2023/10/22 02:03:08;;;;;;;6.57;0.93;;;16.80;99.90;;;;;;5053590;28;20033;-71
2023/10/22 02:05:34;;;;;;;6.95;0.70;;;16.80;99.90;;;;;;5053876;28;20389;-70
2023/10/22 02:08:06;;;;;;;2.92;0.90;;;16.80;99.90;;;;;;5053597;28;20021;-72
2023/10/22 02:10:32;;;;;;;6.67;1.10;;;16.80;99.90;;;;;;5053829;28;20013;-71
2023/10/22 02:12:59;;;;;;;5.38;1.02;;;16.80;99.90;;;;;;5053661;28;20381;-71
2023/10/22 02:15:27;;;;;;;3.88;0.65;;;16.80;99.90;;;;;;5053760;28;20029;-71
2023/10/22 02:17:53;;;;;;;4.90;0.77;;;16.80;99.90;;;;;;5053255;28;20032;-70
2023/10/22 02:20:19;;;;;;;6.13;0.90;;;16.80;99.90;;;;;;5053811;28;20056;-70
2023/10/22 02:22:45;;;;;;;4.55;0.73;;;16.80;99.90;;;;;;5053614;28;20509;-70
2023/10/22 02:25:11;;;;;;;6.57;0.88;;;16.80;99.90;;;;;;5053332;28;20037;-71
2023/10/22 02:27:36;;;;;;;7.50;0.80;;;16.80;99.90;;;;;;5053173;28;20029;-70
2023/10/22 02:30:02;;;;;;;4.82;0.77;;;16.80;99.90;;;;;;5053428;28;20107;-70
2023/10/22 02:32:28;;;;;;;4.82;1.40;;;16.80;99.90;;;;;;5053191;28;20052;-70
2023/10/22 02:34:54;;;;;;;9.45;1.50;;;16.80;99.90;;;;;;5053561;28;20436;-70
2023/10/22 02:37:20;;;;;;;4.00;0.90;;;16.80;99.90;;;;;;5053134;28;20485;-70
2023/10/22 02:39:46;;;;;;;2.33;0.70;;;16.80;99.90;;;;;;5051976;28;20033;-70
2023/10/22 02:42:13;;;;;;;5.25;0.95;;;16.80;99.90;;;;;;5051856;28;20388;-70
2023/10/22 02:44:42;;;;;;;4.78;1.00;;;16.80;99.90;;;;;;5046353;28;20052;-70
2023/10/22 02:47:11;;;;;;;5.07;0.98;;;16.80;99.90;;;;;;5033092;28;20604;-71
2023/10/22 02:49:36;;;;;;;2.85;1.10;;;16.80;99.90;;;;;;5033356;28;20022;-71
2023/10/22 02:52:03;;;;;;;3.25;1.15;;;16.80;99.90;;;;;;5032849;28;20056;-71
2023/10/22 02:54:32;;;;;;;5.30;0.77;;;16.80;99.90;;;;;;5033216;28;20033;-70
2023/10/22 02:56:57;;;;;;;3.97;0.90;;;16.80;99.90;;;;;;5032867;28;20436;-71
2023/10/22 02:59:23;;;;;;;3.28;0.93;;;16.80;99.90;;;;;;5032891;28;20545;-70
2023/10/22 03:01:49;;;;;;;1.95;0.55;;;16.80;99.90;;;;;;5033305;28;20037;-71
2023/10/22 03:04:15;;;;;;;3.15;1.05;;;16.80;99.90;;;;;;5033033;28;20030;-71
2023/10/22 03:06:41;;;;;;;2.63;0.75;;;16.80;99.90;;;;;;5032365;28;20580;-71
2023/10/22 03:09:07;;;;;;;9.15;1.15;;;16.80;99.90;;;;;;5032942;28;20022;-71
2023/10/22 03:11:33;;;;;;;11.55;1.10;;;16.80;99.90;;;;;;5032606;28;20069;-70
2023/10/22 03:13:59;;;;;;;1.73;0.80;;;16.80;99.90;;;;;;5032600;28;20025;-71
2023/10/22 03:16:27;;;;;;;7.60;0.80;;;16.80;99.90;;;;;;5032552;28;20036;-70
2023/10/22 03:18:53;;;;;;;7.00;3.50;;;16.80;99.90;;;;;;5032673;28;20025;-72
2023/10/22 03:21:20;;;;;;;6.22;4.43;;;16.80;99.90;;;;;;5032875;28;20029;-71
2023/10/22 03:23:47;;;;;;;12.23;1.60;;;16.80;99.90;;;;;;5032866;28;20037;-71
2023/10/22 03:26:16;;;;;;;6.25;1.30;;;16.80;99.90;;;;;;5032728;28;20071;-70
2023/10/22 03:28:43;;;;;;;9.27;2.60;;;16.80;99.90;;;;;;5032950;28;20034;-70
2023/10/22 03:33:34;;;;;;;6.22;1.23;;;16.80;99.90;;;;;;5040604;28;20087;-71
2023/10/22 03:36:01;;;;;;;3.70;0.95;;;16.80;99.90;;;;;;5052540;28;20428;-72
2023/10/22 03:38:28;;;;;;;3.17;0.77;;;16.80;99.90;;;;;;5052571;28;20413;-71
2023/10/22 03:41:02;;;;;;;5.53;1.20;;;16.80;99.90;;;;;;5052215;28;20029;-72
2023/10/22 03:43:28;;;;;;;8.18;1.08;;;16.80;99.90;;;;;;5052519;28;20091;-71
2023/10/22 03:45:55;;;;;;;5.38;1.15;;;16.70;99.90;;;;;;5052777;28;20025;-70
2023/10/22 03:48:22;;;;;;;2.88;1.15;;;16.70;99.90;;;;;;5052511;28;20071;-71
2023/10/22 03:50:48;;;;;;;8.30;0.90;;;16.70;99.90;;;;;;5052604;28;20084;-71
2023/10/22 03:53:14;;;;;;;4.10;1.05;;;16.70;99.90;;;;;;5052412;28;20044;-72
2023/10/22 03:55:40;;;;;;;7.35;1.52;;;16.70;99.90;;;;;;5052107;28;20014;-72
2023/10/22 03:58:06;;;;;;;2.88;0.93;;;16.70;99.90;;;;;;5068084;28;20468;-71
2023/10/22 04:00:32;;;;;;;7.60;1.35;;;16.70;99.90;;;;;;5052492;28;20021;-72
2023/10/22 04:03:01;;;;;;;3.80;0.85;;;16.70;99.90;;;;;;5052501;28;20021;-71
2023/10/22 04:05:28;;;;;;;4.45;0.90;;;16.70;99.90;;;;;;5051954;28;20025;-71
2023/10/22 04:07:53;;;;;;;6.47;1.23;;;16.70;99.90;;;;;;5052136;28;20025;-71
2023/10/22 04:10:19;;;;;;;5.10;0.90;;;16.60;99.90;;;;;;5051776;28;20032;-71
2023/10/22 04:12:46;;;;;;;7.55;0.90;;;16.60;99.90;;;;;;5052179;28;20035;-71
2023/10/22 04:15:11;;;;;;;5.72;0.98;;;16.50;99.90;;;;;;5052321;28;20028;-71
2023/10/22 04:17:38;;;;;;;3.28;1.00;;;16.60;99.90;;;;;;5054295;28;20021;-71
2023/10/22 04:20:04;;;;;;;2.47;1.02;;;16.50;99.90;;;;;;5055896;28;20057;-72
2023/10/22 04:22:32;;;;;;;6.88;1.17;;;16.60;99.90;;;;;;5055929;28;20028;-72
2023/10/22 04:24:58;;;;;;;8.07;1.27;;;16.50;99.90;;;;;;5055650;28;20100;-71
2023/10/22 04:27:26;;;;;;;3.67;1.42;;;16.50;99.90;;;;;;5056035;28;20062;-71
2023/10/22 04:29:52;;;;;;;7.38;1.35;;;16.50;99.90;;;;;;5055720;28;20036;-70
2023/10/22 04:32:18;;;;;;;10.27;1.45;;;16.50;99.90;;;;;;5055612;28;20033;-72
2023/10/22 04:34:44;;;;;;;3.25;1.25;;;16.50;99.90;;;;;;5055701;28;20037;-71
2023/10/22 04:37:11;;;;;;;8.95;1.92;;;16.50;99.90;;;;;;5037400;28;20028;-71
2023/10/22 04:39:37;;;;;;;6.97;1.15;;;16.40;99.90;;;;;;5055267;28;20021;-71
2023/10/22 04:42:04;;;;;;;5.75;1.23;;;16.40;99.90;;;;;;5055495;28;20028;-72
2023/10/22 04:44:30;;;;;;;7.60;1.90;;;16.40;99.90;;;;;;5055439;28;20028;-71
2023/10/22 04:46:57;;;;;;;3.50;2.10;;;16.40;99.90;;;;;;5055330;28;20021;-71
2023/10/22 04:49:24;;;;;;;7.35;2.15;;;16.30;99.90;;;;;;5055411;28;20059;-71
2023/10/22 04:51:49;;;;;;;8.98;2.17;;;16.30;99.90;;;;;;5055316;28;20028;-71
2023/10/22 04:54:15;;;;;;;8.20;2.10;;;16.30;99.90;;;;;;5055265;28;20029;-71
2023/10/22 04:56:41;;;;;;;9.15;1.90;;;16.30;99.90;;;;;;5055304;28;20027;-71
2023/10/22 04:59:07;;;;;;;12.27;2.28;;;16.30;99.90;;;;;;5055147;28;20476;-71
2023/10/22 05:01:33;;;;;;;5.93;2.42;;;16.30;99.90;;;;;;5055053;28;20017;-71
2023/10/22 05:03:59;;;;;;;10.18;2.45;;;16.30;99.90;;;;;;5055452;28;20009;-71
2023/10/22 05:06:24;;;;;;;7.45;2.20;;;16.20;99.90;;;;;;5054968;28;20120;-71
2023/10/22 05:08:50;;;;;;;4.43;1.60;;;16.30;99.90;;;;;;5054684;28;20473;-71
2023/10/22 05:11:17;;;;;;;6.85;1.83;;;16.30;99.90;;;;;;5054805;28;20377;-71
2023/10/22 05:13:44;;;;;;;5.82;2.22;;;16.20;99.90;;;;;;5054923;28;20359;-71
2023/10/22 05:16:10;;;;;;;6.63;1.90;;;16.30;99.90;;;;;;5054808;28;20020;-71
2023/10/22 05:18:37;;;;;;;7.03;2.08;;;16.30;99.90;;;;;;5054698;28;20047;-71
2023/10/22 05:21:05;;;;;;;7.32;2.28;;;16.20;99.90;;;;;;5054478;28;20055;-71
2023/10/22 05:23:32;;;;;;;4.07;1.52;;;16.30;99.90;;;;;;5054245;28;20024;-72
2023/10/22 05:26:16;;;;;;;4.15;1.75;;;16.30;99.90;;;;;;5054492;28;20504;-72
2023/10/22 05:28:43;;;;;;;8.77;1.83;;;16.30;99.90;;;;;;5053796;28;20510;-72
2023/10/22 05:31:18;;;;;;;5.72;1.70;;;16.30;99.90;;;;;;5054750;28;20044;-71
2023/10/22 05:33:44;;;;;;;5.25;1.77;;;16.30;99.90;;;;;;5054654;28;20094;-71
2023/10/22 05:36:14;;;;;;;5.03;1.67;;;16.30;99.90;;;;;;5054678;28;20021;-72
2023/10/22 05:38:40;;;;;;;5.00;1.40;;;16.30;99.90;;;;;;5054505;28;20053;-72
2023/10/22 05:41:06;;;;;;;7.65;1.80;;;16.30;99.90;;;;;;5054703;28;20488;-72
2023/10/22 05:43:32;;;;;;;7.55;1.90;;;16.30;99.90;;;;;;5054671;28;20025;-70
2023/10/22 05:45:58;;;;;;;6.95;2.00;;;16.30;99.90;;;;;;5053788;28;20048;-71
2023/10/22 05:48:23;;;;;;;6.28;1.83;;;16.30;99.90;;;;;;5053785;28;20032;-71
2023/10/22 05:50:55;;;;;;;7.43;1.90;;;16.30;99.90;;;;;;5053885;28;20057;-70
2023/10/22 05:53:20;;;;;;;5.60;1.98;;;16.30;99.90;;;;;;5054047;28;20031;-71
2023/10/22 05:55:56;;;;;;;4.75;2.00;;;16.30;99.90;;;;;;5054393;28;20116;-71
2023/10/22 05:58:21;;;;;;;4.97;1.65;;;16.30;99.90;;;;;;5053822;28;20052;-71
2023/10/22 06:00:51;;;;;;;9.27;1.67;;;16.30;99.90;;;;;;5053664;28;20021;-70
2023/10/22 06:03:20;;;;;;;10.82;2.30;;;16.30;99.90;;;;;;5053654;28;20025;-71
2023/10/22 06:05:46;;;;;;;10.55;2.00;;;16.30;99.90;;;;;;5053843;28;20567;-71
2023/10/22 06:08:12;;;;;;;8.60;2.05;;;16.30;99.90;;;;;;5053566;28;20100;-71
2023/10/22 06:10:42;;;;;;;6.90;2.00;;;16.30;99.90;;;;;;5053885;28;20489;-70
2023/10/22 06:13:09;;;;;;;5.93;1.75;;;16.30;99.90;;;;;;5053552;28;20377;-71
2023/10/22 06:15:40;;;;;;;5.78;1.90;;;16.30;99.90;;;;;;5053835;28;20021;-70
2023/10/22 06:18:06;;;;;;;8.02;2.17;;;16.40;99.90;;;;;;5053579;28;20107;-70
2023/10/22 06:20:36;;;;;;;6.28;2.10;;;16.40;99.90;;;;;;5053810;28;20028;-71
2023/10/22 06:23:04;;;;;;;6.72;2.60;;;16.40;99.90;;;;;;5053612;28;20023;-70
2023/10/22 06:25:31;;;;;;;13.63;2.85;;;16.40;99.90;;;;;;5053762;28;20061;-71
2023/10/22 06:27:58;;;;;;;8.40;1.95;;;16.40;99.90;;;;;;5053312;28;20021;-70
2023/10/22 06:30:25;;;;;;;7.38;2.00;;;16.40;99.90;;;;;;5053652;28;20032;-69
2023/10/22 06:32:52;;;;;;;8.13;2.35;;;16.40;99.90;;;;;;5053417;28;20402;-74
2023/10/22 06:35:19;;;;;;;9.68;2.97;;;16.40;99.90;;;;;;5053574;28;20028;-75
2023/10/22 06:37:56;;;;;;;12.73;2.90;;;16.50;99.90;;;;;;5053543;28;20036;-76
2023/10/22 06:40:23;;;;;;;7.43;3.17;;;16.50;99.90;;;;;;5053107;28;20051;-80
2023/10/22 06:42:50;;;;;;;10.50;2.92;;;16.60;99.90;;;;;;5053250;28;20013;-74
2023/10/22 06:45:22;;;;;;;9.68;2.85;;;16.70;99.90;;;;;;5050529;28;20033;-74
2023/10/22 06:47:50;;;;;;;11.23;4.32;;;16.70;99.90;;;;;;5048362;28;20017;-73
2023/10/22 06:50:26;;;;;;;6.90;2.20;;;16.70;99.90;;;;;;5049399;28;20021;-74
2023/10/22 06:52:54;;;;;;;9.75;2.53;;;16.80;99.90;;;;;;5052398;28;20033;-74
2023/10/22 06:55:21;;;;;;;11.13;2.58;;;16.80;99.90;;;;;;5034686;28;20021;-74
2023/10/22 06:57:46;;;;;;;6.70;2.25;;;16.80;99.90;;;;;;5053234;28;20059;-74
2023/10/22 07:00:36;;;;;;;9.20;2.50;;;16.90;99.90;;;;;;5052874;28;20025;-74
2023/10/22 07:03:02;;;;;;;8.27;2.28;;;16.90;99.90;;;;;;5053149;28;20025;-74
2023/10/22 07:05:31;;;;;;;10.68;2.60;;;16.90;99.90;;;;;;5052934;28;20039;-74
2023/10/22 07:07:59;;;;;;;5.78;2.55;;;17.00;99.90;;;;;;5068628;28;20123;-74
2023/10/22 07:10:25;;;;;;;5.95;2.65;;;17.00;99.90;;;;;;5052985;28;20083;-74
2023/10/22 07:12:53;;;;;;;5.53;2.58;;;17.00;99.90;;;;;;5052887;28;20033;-74
2023/10/22 07:15:30;;;;;;;5.55;2.53;;;17.00;99.90;;;;;;5052626;28;20032;-74
2023/10/22 07:17:57;;;;;;;8.63;2.88;;;17.00;99.90;;;;;;5068423;28;20060;-74
2023/10/22 07:20:28;;;;;;;9.68;2.88;;;17.00;99.90;;;;;;5052971;28;20025;-75
2023/10/22 07:22:54;;;;;;;8.43;2.70;;;17.10;99.90;;;;;;5033353;28;20432;-75
2023/10/22 07:25:31;;;;;;;8.77;3.28;;;17.10;99.90;;;;;;5049119;28;20748;-78
2023/10/22 07:28:06;;;;;;;7.80;2.95;;;17.10;99.90;;;;;;5049953;28;20017;-78
2023/10/22 07:30:41;;;;;;;14.02;3.15;;;17.10;99.90;;;;;;5052149;28;20025;-76
2023/10/22 07:33:18;;;;;;;12.07;3.88;;;17.10;99.90;;;;;;5052121;28;20087;-78
2023/10/22 07:36:07;;;;;;;11.20;3.47;;;17.10;99.90;;;;;;5034513;28;20037;-77
2023/10/22 07:38:40;;;;;;;15.18;3.60;;;17.20;99.90;;;;;;5052088;28;20028;-75
2023/10/22 07:41:15;;;;;;;8.45;3.50;;;17.20;99.90;;;;;;5052591;28;20376;-76
2023/10/22 07:43:48;;;;;;;10.38;2.60;;;17.20;99.90;;;;;;5052733;28;20044;-77
2023/10/22 07:46:19;;;;;;;;;;;17.20;99.90;;;;;;5052962;28;20033;-77
2023/10/22 07:48:51;;;;;;;9.75;3.00;;;17.30;99.90;;;;;;5051921;28;19911;-77
2023/10/22 07:51:30;;;;;;;8.13;2.83;;;17.30;99.90;;;;;;5052891;28;20029;-77
2023/10/22 07:54:05;;;;;;;8.73;2.58;;;17.30;99.90;;;;;;5055749;28;20025;-76
2023/10/22 07:56:34;;;;;;;7.00;2.00;;;17.30;99.90;;;;;;5056041;28;20025;-77
2023/10/22 07:59:00;;;;;;;8.13;2.13;;;17.30;99.90;;;;;;5056438;28;20021;-76
2023/10/22 08:01:29;;;;;;;5.97;1.92;;;17.40;99.90;;;;;;5056559;28;20385;-76
2023/10/22 08:03:58;;;;;;;8.73;2.70;;;17.40;99.90;;;;;;5056149;28;20382;-76
2023/10/22 08:06:30;;;;;;;6.93;1.90;;;17.40;99.90;;;;;;5054449;28;20021;-77
2023/10/22 08:08:57;;;;;;;11.15;2.00;;;17.50;99.90;;;;;;5054057;28;20021;-76
2023/10/22 08:11:23;;;;;;;7.32;2.53;;;17.50;99.90;;;;;;5054647;28;20029;-77
2023/10/22 08:13:49;;;;;;;7.53;1.90;;;17.50;99.90;;;;;;5054655;28;20381;-76
2023/10/22 08:16:20;;;;;;;6.32;1.77;;;17.50;99.90;;;;;;5054542;28;20083;-76
2023/10/22 08:18:48;;;;;;;7.03;1.92;;;17.60;99.90;;;;;;5055593;28;20543;-76
2023/10/22 08:21:16;;;;;;;5.55;1.80;;;17.60;99.90;;;;;;5056144;28;20025;-75
2023/10/22 08:23:42;;;;;;;7.18;1.63;;;17.70;99.90;;;;;;5055881;28;20100;-76
2023/10/22 08:26:13;;;;;;;7.97;2.10;;;17.70;99.90;;;;;;5056092;28;20051;-76
2023/10/22 08:28:55;;;;;;;5.38;1.70;;;17.80;99.90;;;;;;5055978;28;20032;-77
2023/10/22 08:31:56;;;;;;;8.32;2.00;;;17.80;99.90;;;;;;5055834;28;20063;-76
2023/10/22 08:34:25;;;;;;;6.65;1.60;;;17.90;99.90;;;;;;4991150;28;20057;-77
2023/10/22 08:37:00;;;;;;;6.28;1.83;;;17.90;99.90;;;;;;5041808;28;20053;-77
2023/10/22 08:39:27;;;;;;;7.18;1.60;;;18.00;99.90;;;;;;5055380;28;20075;-77
2023/10/22 08:42:11;;;;;;;5.55;1.67;;;18.00;99.90;;;;;;5055457;28;20432;-77
2023/10/22 08:44:48;;;;;;;7.35;2.00;;;18.10;99.90;;;;;;5055820;28;20032;-76
2023/10/22 08:47:17;;;;;;;5.47;1.45;;;18.10;99.90;;;;;;5055532;28;20025;-77
2023/10/22 08:49:54;;;;;;;9.55;1.48;;;18.20;99.90;;;;;;5055370;28;20040;-76
2023/10/22 08:52:19;;;;;;;5.53;1.58;;;18.20;99.90;;;;;;5055432;28;20370;-77
2023/10/22 08:54:57;;;;;;;12.25;1.63;;;18.30;99.90;;;;;;5055585;28;20048;-77
2023/10/22 08:57:27;;;;;;;5.32;1.40;;;18.30;99.90;;;;;;5054282;28;20040;-77
2023/10/22 08:59:52;;;;;;;5.03;1.40;;;18.40;99.90;;;;;;5052057;28;20050;-77
2023/10/22 09:02:26;;;;;;;7.18;1.55;;;18.40;99.90;;;;;;5052412;28;20033;-76
2023/10/22 09:04:58;;;;;;;6.75;1.85;;;18.40;99.90;;;;;;5052853;28;20025;-77
2023/10/22 09:08:01;;;;;;;3.60;1.10;;;18.50;99.90;;;;;;5055055;28;20032;-77
2023/10/22 09:10:31;;;;;;;7.28;1.35;;;18.60;99.90;;;;;;5055331;28;20108;-77
2023/10/22 09:13:11;;;;;;;7.00;1.38;;;18.60;99.90;;;;;;5055083;28;20040;-76
2023/10/22 09:15:59;;;;;;;9.43;1.40;;;18.70;99.90;;;;;;5055325;28;20115;-76
2023/10/22 09:18:26;;;;;;;4.95;1.20;;;18.70;99.90;;;;;;5055019;28;20051;-76
2023/10/22 09:21:04;;;;;;;4.43;1.20;;;18.80;99.90;;;;;;5054723;28;20033;-76
2023/10/22 09:23:33;;;;;;;8.45;1.45;;;18.80;99.90;;;;;;5054585;28;20059;-76
2023/10/22 09:26:13;;;;;;;6.30;1.70;;;18.70;99.90;;;;;;5054717;28;20033;-77
2023/10/22 09:28:40;;;;;;;6.45;1.15;;;18.70;99.90;;;;;;5036518;28;20021;-76
2023/10/22 09:31:22;;;;;;;5.00;1.00;;;18.70;99.90;;;;;;5054813;28;20385;-76
2023/10/22 09:37:03;;;;;;;6.70;1.20;;;18.70;99.90;;;;;;5055129;28;20036;-76
2023/10/22 09:39:47;;;;;;;4.18;1.15;;;18.70;99.90;;;;;;5051857;28;20032;-76
2023/10/22 09:42:15;;;;;;;4.47;1.17;;;18.70;99.90;;;;;;5052025;28;20032;-76
2023/10/22 09:44:47;;;;;;;7.97;1.65;;;18.70;99.90;;;;;;5053066;28;20032;-77
2023/10/22 09:47:33;;;;;;;7.38;1.40;;;18.70;99.90;;;;;;5054379;28;20021;-76
2023/10/22 09:50:12;;;;;;;4.95;1.10;;;18.70;99.90;;;;;;5054512;28;20389;-76
2023/10/22 09:52:46;;;;;;;2.47;0.90;;;18.70;99.90;;;;;;5054098;28;20061;-76
2023/10/22 09:55:13;;;;;;;5.78;1.17;;;18.70;99.90;;;;;;5054376;28;20036;-77
2023/10/22 09:57:46;;;;;;;3.45;1.00;;;18.70;99.90;;;;;;5054150;28;20021;-77
2023/10/22 10:00:22;;;;;;;5.72;1.27;;;18.70;99.90;;;;;;5054019;28;20024;-76
2023/10/22 10:02:51;;;;;;;6.60;1.17;;;18.90;99.90;;;;;;5054347;28;20469;-76
2023/10/22 10:05:21;;;;;;;5.47;0.98;;;18.90;99.90;;;;;;5054313;28;20029;-77
2023/10/22 10:07:50;;;;;;;6.90;1.38;;;19.00;99.90;;;;;;5053488;28;20481;-77
2023/10/22 10:10:26;;;;;;;3.95;1.05;;;19.00;99.90;;;;;;5053923;28;20044;-76
2023/10/22 10:12:56;;;;;;;4.20;1.00;;;19.10;99.90;;;;;;5053837;28;20045;-76
2023/10/22 10:15:34;;;;;;;5.85;1.00;;;19.20;99.90;;;;;;5053154;28;20385;-77
2023/10/22 10:18:06;;;;;;;6.95;1.30;;;19.20;99.90;;;;;;5053986;28;20119;-77
2023/10/22 10:20:32;;;;;;;4.88;1.27;;;19.30;99.90;;;;;;5053734;28;20047;-76
2023/10/22 10:23:19;;;;;;;4.25;0.90;;;19.30;99.90;;;;;;5053740;28;20021;-77
2023/10/22 10:25:51;;;;;;;4.00;0.95;;;19.30;99.80;;;;;;5053672;28;20021;-77
2023/10/22 10:28:53;;;;;;;;;;;19.30;98.70;;;;;;5054111;28;20071;-77
2023/10/22 10:31:35;;;;;;;3.57;1.27;;;19.30;98.60;;;;;;5053940;28;19913;-77
2023/10/22 10:34:07;;;;;;;4.28;0.95;;;19.30;99.50;;;;;;5053568;28;20092;-76
2023/10/22 10:36:37;;;;;;;4.20;1.20;;;19.40;99.50;;;;;;5053393;28;20402;-77
2023/10/22 10:39:43;;;;;;;6.40;1.20;;;19.40;98.80;;;;;;5053737;28;20029;-76
2023/10/22 10:42:32;;;;;;;5.38;1.30;;;19.40;99.20;;;;;;5052929;28;20040;-76
2023/10/22 10:45:07;;;;;;;8.82;1.13;;;19.50;99.50;;;;;;5045732;28;20059;-76
2023/10/22 10:47:51;;;;;;;2.72;0.93;;;19.60;99.40;;;;;;5053215;28;20037;-77
2023/10/22 10:50:23;;;;;;;3.28;0.88;;;19.60;98.40;;;;;;5053164;28;20031;-77
2023/10/22 10:52:49;;;;;;;5.25;1.27;;;19.70;98.70;;;;;;5053263;28;20076;-77
2023/10/22 10:55:20;;;;;;;4.20;1.10;;;19.80;98.70;;;;;;5053511;28;20072;-77
2023/10/22 10:57:49;;;;;;;6.05;1.20;;;19.90;98.50;;;;;;5052803;28;20025;-77
2023/10/22 11:00:30;;;;;;;4.78;1.27;;;19.90;98.30;;;;;;5050636;28;20033;-76
2023/10/22 11:03:04;;;;;;;7.82;1.30;;;20.00;97.90;;;;;;5050997;28;20104;-76
2023/10/22 11:05:42;;;;;;;3.25;1.10;;;20.00;97.10;;;;;;5053091;28;20082;-77
2023/10/22 11:08:22;;;;;;;3.35;0.90;;;20.00;96.90;;;;;;5053296;28;20032;-77
2023/10/22 11:10:51;;;;;;;6.32;1.50;;;20.00;97.20;;;;;;5053355;28;20036;-76
2023/10/22 11:13:26;;;;;;;4.47;1.30;;;20.10;97.30;;;;;;5034702;28;20039;-76
2023/10/22 11:16:24;;;;;;;6.30;1.48;;;20.10;97.30;;;;;;5052993;28;20044;-77
2023/10/22 11:19:28;;;;;;;6.47;1.02;;;20.10;95.40;;;;;;5052519;28;20120;-77
2023/10/22 11:21:55;;;;;;;6.13;1.02;;;20.10;95.30;;;;;;5033866;28;20032;-77
2023/10/22 11:24:33;;;;;;;8.50;1.00;;;20.10;95.70;;;;;;5050370;28;20025;-77
2023/10/22 11:27:04;;;;;;;7.97;1.23;;;20.10;95.10;;;;;;5049646;28;20025;-77
2023/10/22 11:29:41;;;;;;;3.17;0.90;;;20.10;94.20;;;;;;5051077;28;20076;-76
2023/10/22 11:32:21;;;;;;;6.55;0.90;;;20.10;93.10;;;;;;5052450;28;20037;-77
2023/10/22 11:35:02;;;;;;;3.92;1.10;;;20.10;91.20;;;;;;5052772;28;20098;-76
2023/10/22 11:38:03;;;;;;;1.63;0.75;;;20.20;92.10;;;;;;5052878;28;20385;-77
2023/10/22 11:40:39;;;;;;;3.08;0.98;;;20.20;93.30;;;;;;5020093;28;20041;-76
2023/10/22 11:43:26;;;;;;;4.30;1.08;;;20.20;90.80;;;;;;5035020;28;20028;-76
2023/10/22 11:45:56;;;;;;;2.67;1.20;;;20.10;91.20;;;;;;5052823;28;20052;-76
2023/10/22 11:48:24;;;;;;;7.65;1.23;;;20.10;91.60;;;;;;5052821;28;20029;-76
2023/10/22 11:50:56;;;;;;;3.90;0.95;;;20.10;92.30;;;;;;5052527;28;20079;-76
2023/10/22 11:53:22;;;;;;;4.63;0.90;;;20.10;91.80;;;;;;5052283;28;20037;-76
2023/10/22 11:55:49;;;;;;;3.95;1.10;;;20.10;92.70;;;;;;5052667;28;20108;-76
2023/10/22 11:58:27;;;;;;;3.45;0.80;;;20.10;93.10;;;;;;5052676;28;20068;-77
2023/10/22 12:00:59;;;;;;;7.70;1.27;;;20.10;92.80;;;;;;5052373;28;20531;-76
2023/10/22 12:03:25;;;;;;;8.43;1.00;;;20.20;92.60;;;;;;5052797;28;20033;-76
2023/10/22 12:05:51;;;;;;;3.03;1.10;;;20.20;90.40;;;;;;5052599;28;20055;-77
2023/10/22 12:08:22;;;;;;;4.63;1.08;;;20.20;90.80;;;;;;5052501;28;20463;-77
2023/10/22 12:10:51;;;;;;;8.57;1.30;;;20.20;91.30;;;;;;5052490;28;20071;-77
2023/10/22 12:13:17;;;;;;;5.30;1.10;;;20.20;91.50;;;;;;5052555;28;20388;-77
2023/10/22 12:15:44;;;;;;;5.03;1.13;;;20.30;89.70;;;;;;5052376;28;20426;-77
2023/10/22 12:18:10;;;;;;;3.88;1.10;;;20.40;90.30;;;;;;5052457;28;20362;-77
2023/10/22 12:20:41;;;;;;;6.00;0.90;;;20.40;90.70;;;;;;5052441;28;20033;-77
2023/10/22 12:23:11;;;;;;;9.00;1.00;;;20.50;89.60;;;;;;5052069;28;20495;-76
2023/10/22 12:25:39;;;;;;;3.03;0.90;;;20.60;88.00;;;;;;5051998;28;20024;-76
2023/10/22 12:28:17;;;;;;;6.43;0.95;;;20.60;89.40;;;;;;5052391;28;20505;-76
2023/10/22 12:30:46;;;;;;;7.32;1.10;;;20.70;90.10;;;;;;5052389;28;20435;-76
2023/10/22 12:33:16;;;;;;;4.90;1.27;;;20.80;86.80;;;;;;5051887;28;20507;-76
2023/10/22 12:35:42;;;;;;;3.53;1.00;;;20.80;87.10;;;;;;5052280;28;20025;-77
2023/10/22 12:38:08;;;;;;;4.53;1.20;;;20.80;83.80;;;;;;5053547;28;20044;-77
2023/10/22 12:40:35;;;;;;;5.80;1.05;;;20.90;85.10;;;;;;5056086;28;20036;-77
2023/10/22 12:43:05;;;;;;;4.97;1.25;;;20.80;85.10;;;;;;5055317;28;20043;-77
2023/10/22 12:45:33;;;;;;;2.35;0.75;;;20.90;85.90;;;;;;5037228;28;20021;-76
2023/10/22 12:48:00;;;;;;;2.38;0.80;;;20.90;83.70;;;;;;5055829;28;20358;-77
2023/10/22 12:50:26;;;;;;;4.95;1.13;;;20.90;85.80;;;;;;5055384;28;20095;-76
2023/10/22 12:52:55;;;;;;;6.68;1.95;;;20.90;83.40;;;;;;5055463;28;20033;-76
2023/10/22 12:55:23;;;;;;;4.18;0.82;;;20.90;79.80;;;;;;5055631;28;20021;-77
2023/10/22 12:57:52;;;;;;;5.50;0.93;;;20.90;80.10;;;;;;5054362;28;20029;-77
2023/10/22 13:00:37;;;;;;;5.50;1.90;;;21.00;80.20;;;;;;5054920;28;20024;-77
2023/10/22 13:03:09;;;;;;;3.70;1.00;;;21.00;79.20;;;;;;5054872;28;20032;-76
2023/10/22 13:05:35;;;;;;;4.70;1.00;;;20.90;81.40;;;;;;5054977;28;20029;-77